Tuesday, January 15, 2019, 6:31 PM EST
Back to Local

KBHB, Bar Harbor, Hancock County-bar Harbor Airport

Location: Ellsworth, ME, United States Lat: 44.45
Local Time: 6:31 PM EST (23:31 GMT) Lon: -68.367
Time Zone: US/Eastern Elev: 82 ft

Show me the last for .
Show Decoded

2019-01-15 17:56 METAR KBHB 152256Z AUTO 34003KT 10SM CLR M06/M10 A3006 RMK AO2 SLP184 T10611100
                 FZRANO $ =
2019-01-15 16:56 METAR KBHB 152156Z AUTO 33004KT 10SM CLR M05/M10 A3005 RMK AO2 SLP180 T10501100
                 FZRANO $ =
2019-01-15 15:56 METAR KBHB 152056Z AUTO 35005KT 10SM CLR M03/M09 A3004 RMK AO2 SLP176 T10331094
                 53014 FZRANO $ =
2019-01-15 14:56 METAR KBHB 151956Z AUTO 01006KT 10SM CLR M02/M09 A3002 RMK AO2 SLP170 T10221094
                 FZRANO $ =
2019-01-15 13:56 METAR KBHB 151856Z AUTO 36007KT 10SM CLR M02/M09 A3001 RMK AO2 SLP165 T10221094
                 FZRANO $ =
2019-01-15 12:56 METAR KBHB 151756Z AUTO 36009KT 10SM CLR M02/M10 A3000 RMK AO2 SLP162 T10221100
                 11022 21106 56018 FZRANO $ =
2019-01-15 11:56 METAR KBHB 151656Z AUTO 36007KT 10SM BKN050 M04/M11 A3001 RMK AO2 SLP166
                 T10441106 FZRANO $ =
2019-01-15 10:56 METAR KBHB 151556Z AUTO VRB04KT 10SM OVC050 M06/M11 A3003 RMK AO2 SLP174
                 T10561111 FZRANO $ =
2019-01-15 09:56 METAR KBHB 151456Z AUTO 34005KT 10SM OVC050 M06/M11 A3005 RMK AO2 SLP180
                 T10611111 53013 FZRANO $ =
2019-01-15 08:56 METAR KBHB 151356Z AUTO 33005KT 10SM OVC050 M07/M12 A3004 RMK AO2 SLP176
                 T10721122 FZRANO $ =
2019-01-15 07:56 METAR KBHB 151256Z AUTO 35003KT 10SM BKN050 M08/M13 A3002 RMK AO2 SLP169
                 T10831128 FZRANO $ =
2019-01-15 06:56 METAR KBHB 151156Z AUTO 33004KT 10SM CLR M11/M14 A3001 RMK AO2 SLP167 T11061139
                 11106 21128 51008 FZRANO $ =
2019-01-15 05:56 METAR KBHB 151056Z AUTO 33003KT 10SM CLR M11/M14 A3000 RMK AO2 SLP163 T11111144
                 FZRANO $ =
2019-01-15 04:56 METAR KBHB 150956Z AUTO 31004KT 10SM CLR M12/M14 A3000 RMK AO2 SLP163 T11171144
                 FZRANO $ =
2019-01-15 03:56 METAR KBHB 150856Z AUTO 32004KT 10SM CLR M12/M14 A2999 RMK AO2 SLP159 T11171139
                 58003 FZRANO $ =
2019-01-15 02:56 METAR KBHB 150756Z AUTO 01003KT 10SM CLR M12/M14 A2999 RMK AO2 SLP160 T11171139
                 FZRANO $ =
2019-01-15 01:56 METAR KBHB 150656Z AUTO 00000KT 10SM CLR M12/M14 A3000 RMK AO2 SLP162 T11221139
                 FZRANO $ =
2019-01-15 00:56 METAR KBHB 150556Z AUTO 00000KT 10SM CLR M12/M14 A3000 RMK AO2 SLP163 T11221144
                 11100 21122 58020 FZRANO $ =
2019-01-14 22:56 METAR KBHB 150356Z AUTO 00000KT 10SM CLR M11/M14 A3005 RMK AO2 SLP179 T11111139
                 FZRANO $ =
2019-01-14 21:56 METAR KBHB 150256Z AUTO 00000KT 10SM CLR M11/M14 A3006 RMK AO2 SLP183 T11111144
                 56019 FZRANO $ =
2019-01-14 20:56 METAR KBHB 150156Z AUTO 35004KT 10SM CLR M11/M14 A3007 RMK AO2 SLP187 T11061144
                 FZRANO $ =
2019-01-14 19:56 METAR KBHB 150056Z AUTO 00000KT 10SM CLR M11/M15 A3009 RMK AO2 SLP195 T11061150
                 FZRANO $ =
2019-01-14 18:56 METAR KBHB 142356Z AUTO 00000KT 10SM CLR M10/M14 A3012 RMK AO2 SLP202 T11001144
                 11022 21100 410221156 58008 FZRANO $ =

Support USWX by starting your Amazon purchase here.